Time;durP1;ratioP1;P1;durP2;ratioP2;P2;SDS_P1;SDS_P2;PMS_P1;PMS_P2;Temp;Humidity;BMP_temperature;BMP_pressure;BME280_temperature;BME280_humidity;BME280_pressure;Samples;Min_cycle;Max_cycle;Signal;HPM_P1;HPM_P2
2023/11/19 00:01:26;;;;;;;15.82;13.55;;;13.10;97.40;;;;;;4992470;28;20415;-31
2023/11/19 00:03:53;;;;;;;14.65;13.07;;;13.10;97.30;;;;;;4992479;28;20030;-33
2023/11/19 00:06:19;;;;;;;16.20;12.50;;;13.10;97.30;;;;;;4992537;28;20077;-35
2023/11/19 00:08:44;;;;;;;14.45;12.68;;;13.10;97.20;;;;;;4992412;28;20058;-33
2023/11/19 00:11:10;;;;;;;16.50;14.18;;;13.10;97.20;;;;;;4992207;28;20359;-32
2023/11/19 00:13:36;;;;;;;15.45;13.35;;;13.20;97.20;;;;;;4995313;28;20026;-33
2023/11/19 00:16:04;;;;;;;15.07;13.27;;;13.20;97.20;;;;;;4996356;28;20045;-30
2023/11/19 00:18:29;;;;;;;16.67;13.55;;;13.20;97.20;;;;;;4996192;28;20073;-30
2023/11/19 00:20:55;;;;;;;13.55;12.07;;;13.20;97.20;;;;;;4996331;28;20034;-30
2023/11/19 00:23:20;;;;;;;13.88;12.48;;;13.20;97.20;;;;;;4996164;28;20493;-30
2023/11/19 00:25:47;;;;;;;15.18;12.75;;;13.30;97.20;;;;;;4996013;28;20479;-31
2023/11/19 00:28:13;;;;;;;16.50;12.48;;;13.20;97.10;;;;;;4995628;28;20034;-36
2023/11/19 00:30:40;;;;;;;16.17;12.43;;;13.20;97.10;;;;;;4995975;28;20109;-33
2023/11/19 00:33:06;;;;;;;15.23;12.75;;;13.20;97.10;;;;;;4996191;28;20562;-41
2023/11/19 00:35:32;;;;;;;16.95;12.70;;;13.30;97.10;;;;;;4996161;28;20105;-32
2023/11/19 00:37:58;;;;;;;16.38;12.45;;;13.30;97.10;;;;;;4995791;28;20035;-37
2023/11/19 00:40:24;;;;;;;14.85;12.02;;;13.30;97.10;;;;;;4995750;28;20081;-35
2023/11/19 00:42:50;;;;;;;16.23;11.57;;;13.30;97.00;;;;;;4995670;28;20026;-32
2023/11/19 00:45:15;;;;;;;12.85;11.38;;;13.30;97.00;;;;;;4995693;28;20030;-32
2023/11/19 00:47:41;;;;;;;15.68;10.75;;;13.30;97.00;;;;;;4994037;28;20031;-31
2023/11/19 00:50:09;;;;;;;18.33;10.98;;;13.40;97.00;;;;;;4995554;28;20084;-34
2023/11/19 00:52:36;;;;;;;13.20;10.00;;;13.40;97.00;;;;;;4995585;28;20030;-33
2023/11/19 00:55:02;;;;;;;14.70;10.13;;;13.40;97.00;;;;;;4995829;28;20494;-33
2023/11/19 00:57:27;;;;;;;15.70;9.27;;;13.40;96.90;;;;;;4995761;28;20015;-34
2023/11/19 00:59:53;;;;;;;15.23;9.02;;;13.40;96.90;;;;;;4995320;28;20110;-33
2023/11/19 01:02:18;;;;;;;14.95;8.10;;;13.40;96.90;;;;;;4995743;28;20503;-34
2023/11/19 01:04:45;;;;;;;15.20;8.70;;;13.40;96.90;;;;;;4995447;28;20033;-33
2023/11/19 01:07:12;;;;;;;17.67;8.10;;;13.40;96.90;;;;;;4995719;28;20034;-38
2023/11/19 01:09:38;;;;;;;14.43;7.38;;;13.40;96.80;;;;;;4995574;28;20034;-33
2023/11/19 01:12:04;;;;;;;13.45;6.70;;;13.40;96.80;;;;;;4995255;28;20110;-32
2023/11/19 01:14:30;;;;;;;12.32;6.68;;;13.40;96.80;;;;;;4995310;28;20057;-35
2023/11/19 01:16:57;;;;;;;14.98;6.45;;;13.40;96.80;;;;;;4994935;28;20019;-30
2023/11/19 01:19:23;;;;;;;19.33;6.47;;;13.40;96.80;;;;;;4993683;28;20498;-30
2023/11/19 01:21:52;;;;;;;17.83;6.72;;;13.40;96.70;;;;;;4995216;28;20492;-33
2023/11/19 01:24:18;;;;;;;21.80;7.07;;;13.50;96.70;;;;;;4994418;28;20034;-34
2023/11/19 01:26:45;;;;;;;18.70;6.05;;;13.40;96.70;;;;;;4994846;28;20398;-34
2023/11/19 01:29:13;;;;;;;19.02;6.38;;;13.50;96.70;;;;;;4995006;28;20097;-35
2023/11/19 01:31:40;;;;;;;11.02;5.25;;;13.50;96.60;;;;;;4994861;28;20034;-32
2023/11/19 01:34:05;;;;;;;15.77;5.68;;;13.50;96.60;;;;;;4994851;28;20057;-30
2023/11/19 01:36:31;;;;;;;19.52;5.88;;;13.50;96.60;;;;;;4994610;28;20136;-30
2023/11/19 01:38:56;;;;;;;13.43;4.63;;;13.40;96.50;;;;;;4994703;28;20034;-32
2023/11/19 01:41:22;;;;;;;16.85;5.28;;;13.50;96.50;;;;;;4994614;28;20033;-32
2023/11/19 01:43:48;;;;;;;16.00;5.15;;;13.50;96.40;;;;;;4994799;28;20037;-31
2023/11/19 01:46:14;;;;;;;16.80;4.40;;;13.50;96.40;;;;;;4994602;28;20045;-30
2023/11/19 01:48:43;;;;;;;16.73;4.75;;;13.50;96.40;;;;;;4994670;28;20498;-30
2023/11/19 01:51:09;;;;;;;21.98;5.68;;;13.50;96.30;;;;;;4994348;28;20030;-30
2023/11/19 01:53:37;;;;;;;18.38;4.47;;;13.50;96.30;;;;;;4993242;28;20364;-30
2023/11/19 01:56:04;;;;;;;18.45;4.68;;;13.50;96.30;;;;;;4994286;28;20061;-31
2023/11/19 01:58:30;;;;;;;19.10;4.70;;;13.50;96.20;;;;;;4994527;28;20054;-30
2023/11/19 02:00:57;;;;;;;20.08;4.75;;;13.50;96.20;;;;;;4994418;28;20513;-31
2023/11/19 02:03:26;;;;;;;17.88;4.38;;;13.50;96.20;;;;;;4993704;28;20060;-30
2023/11/19 02:05:52;;;;;;;13.93;4.30;;;13.50;96.10;;;;;;4994054;28;20379;-31
2023/11/19 02:08:20;;;;;;;12.48;3.83;;;13.50;96.10;;;;;;4994346;28;20030;-33
2023/11/19 02:10:45;;;;;;;19.65;4.47;;;13.50;96.10;;;;;;4992808;28;20056;-31
2023/11/19 02:13:13;;;;;;;15.35;4.50;;;13.50;96.10;;;;;;4994376;28;20105;-33
2023/11/19 02:15:39;;;;;;;18.13;4.35;;;13.50;96.00;;;;;;4994440;28;20429;-37
2023/11/19 02:18:18;;;;;;;15.00;4.75;;;13.50;96.00;;;;;;4993899;28;20026;-34
2023/11/19 02:20:44;;;;;;;20.73;4.60;;;13.50;96.00;;;;;;4992752;28;20038;-32
2023/11/19 02:23:09;;;;;;;18.85;4.60;;;13.50;95.90;;;;;;4993868;28;20027;-31
2023/11/19 02:25:36;;;;;;;18.45;4.47;;;13.50;95.90;;;;;;4993771;28;20034;-32
2023/11/19 02:28:03;;;;;;;19.23;4.55;;;13.50;95.90;;;;;;4993645;28;20066;-30
2023/11/19 02:30:29;;;;;;;16.92;4.13;;;13.40;95.80;;;;;;4993518;28;20038;-35
2023/11/19 02:32:58;;;;;;;19.77;4.28;;;13.50;95.80;;;;;;4993704;28;20084;-33
2023/11/19 02:35:28;;;;;;;14.98;3.72;;;13.50;95.80;;;;;;4992941;28;20030;-39
2023/11/19 02:37:56;;;;;;;21.60;4.53;;;13.40;95.70;;;;;;4993502;28;20420;-33
2023/11/19 02:40:24;;;;;;;19.33;3.80;;;13.40;95.60;;;;;;4993773;28;20046;-36
2023/11/19 02:42:50;;;;;;;21.35;4.72;;;13.40;95.60;;;;;;4992250;28;20042;-34
2023/11/19 02:45:16;;;;;;;19.75;4.43;;;13.40;95.50;;;;;;4993380;28;20109;-33
2023/11/19 02:47:42;;;;;;;23.55;4.60;;;13.40;95.40;;;;;;4993481;28;20248;-30
2023/11/19 02:50:14;;;;;;;25.58;4.78;;;13.40;95.40;;;;;;4992220;28;20537;-32
2023/11/19 02:52:46;;;;;;;20.43;4.27;;;13.40;95.40;;;;;;4993703;28;20034;-31
2023/11/19 02:55:12;;;;;;;26.20;5.20;;;13.40;95.40;;;;;;4993202;28;20327;-30
2023/11/19 02:57:50;;;;;;;24.30;4.85;;;13.40;95.20;;;;;;4991810;28;20026;-30
2023/11/19 03:00:17;;;;;;;19.48;3.78;;;13.40;95.20;;;;;;4992342;28;20030;-32
2023/11/19 03:02:45;;;;;;;24.58;4.90;;;13.30;95.20;;;;;;4993405;28;20069;-30
2023/11/19 03:05:14;;;;;;;24.60;4.65;;;13.30;95.10;;;;;;4993334;28;20117;-30
2023/11/19 03:07:43;;;;;;;17.83;5.38;;;13.30;95.00;;;;;;4993482;28;20123;-36
2023/11/19 03:10:13;;;;;;;21.05;4.32;;;13.30;95.10;;;;;;4992978;28;20079;-32
2023/11/19 03:12:39;;;;;;;24.80;5.45;;;13.20;95.00;;;;;;4993107;28;20057;-31
2023/11/19 03:15:05;;;;;;;26.02;5.22;;;13.20;95.00;;;;;;4993365;28;20110;-33
2023/11/19 03:17:31;;;;;;;29.58;4.70;;;13.20;94.90;;;;;;4992735;28;20061;-30
2023/11/19 03:19:56;;;;;;;21.83;4.97;;;13.20;94.90;;;;;;4992887;28;20058;-36
2023/11/19 03:22:22;;;;;;;30.90;5.13;;;13.10;94.80;;;;;;4992949;28;20097;-36
2023/11/19 03:24:51;;;;;;;24.83;4.65;;;13.10;94.80;;;;;;4992811;28;20038;-39
2023/11/19 03:27:17;;;;;;;27.05;5.22;;;13.10;94.80;;;;;;4992873;28;20036;-36
2023/11/19 03:29:43;;;;;;;30.23;4.78;;;13.10;94.80;;;;;;4992586;28;20070;-30
2023/11/19 03:32:08;;;;;;;23.38;4.00;;;13.10;94.80;;;;;;4992885;28;20077;-34
2023/11/19 03:34:34;;;;;;;27.30;5.05;;;13.10;94.80;;;;;;4992898;28;20448;-35
2023/11/19 03:36:59;;;;;;;28.70;4.80;;;13.00;94.70;;;;;;4992834;28;20047;-37
2023/11/19 03:39:26;;;;;;;25.17;5.20;;;13.00;94.70;;;;;;4993155;28;20514;-35
2023/11/19 03:41:52;;;;;;;25.65;5.53;;;13.00;94.70;;;;;;4992944;28;20493;-31
2023/11/19 03:44:19;;;;;;;33.67;5.68;;;13.00;94.60;;;;;;4992674;28;20032;-36
2023/11/19 03:46:44;;;;;;;30.33;6.05;;;12.90;94.50;;;;;;4992540;28;20447;-33
2023/11/19 03:49:10;;;;;;;28.83;5.88;;;12.90;94.60;;;;;;4996581;28;20034;-34
2023/11/19 03:51:35;;;;;;;22.90;5.20;;;12.80;94.50;;;;;;4996454;28;20033;-37
2023/11/19 03:54:01;;;;;;;24.95;5.13;;;12.80;94.50;;;;;;4996548;28;20025;-33
2023/11/19 03:56:27;;;;;;;32.22;5.28;;;12.70;94.50;;;;;;4996388;28;20022;-37
2023/11/19 03:58:52;;;;;;;29.50;5.95;;;12.70;94.50;;;;;;4996542;28;20096;-34
2023/11/19 04:01:18;;;;;;;29.27;6.57;;;12.60;94.50;;;;;;4996414;28;20386;-38
2023/11/19 04:03:44;;;;;;;32.72;5.60;;;12.50;94.80;;;;;;4996369;28;20026;-37
2023/11/19 04:06:09;;;;;;;29.98;5.60;;;12.50;94.60;;;;;;4996523;28;20034;-35
2023/11/19 04:08:35;;;;;;;33.50;6.50;;;12.40;94.60;;;;;;4996371;28;20031;-37
2023/11/19 04:11:03;;;;;;;34.45;5.72;;;12.40;94.70;;;;;;4996210;28;20387;-34
2023/11/19 04:13:28;;;;;;;31.70;5.45;;;12.30;94.70;;;;;;4996153;28;20018;-35
2023/11/19 04:15:54;;;;;;;23.30;5.22;;;12.30;94.70;;;;;;4996157;28;20470;-38
2023/11/19 04:18:19;;;;;;;32.75;5.63;;;12.20;94.70;;;;;;4995691;28;20014;-35
2023/11/19 04:20:45;;;;;;;35.17;5.68;;;12.20;94.80;;;;;;4996013;28;20077;-33
2023/11/19 04:23:11;;;;;;;27.50;4.60;;;12.20;94.80;;;;;;4996079;28;20478;-33
2023/11/19 04:25:36;;;;;;;30.83;5.55;;;12.20;94.80;;;;;;4995881;28;20029;-36
2023/11/19 04:28:02;;;;;;;28.67;5.63;;;12.10;94.70;;;;;;4995743;28;20027;-38
2023/11/19 04:30:28;;;;;;;36.17;6.18;;;12.10;94.70;;;;;;4995762;28;20054;-35
2023/11/19 04:32:54;;;;;;;31.70;5.60;;;12.10;94.70;;;;;;4996103;28;20494;-33
2023/11/19 04:35:19;;;;;;;29.80;5.28;;;12.10;94.70;;;;;;4995727;28;20037;-35
2023/11/19 04:37:45;;;;;;;42.20;7.28;;;12.10;94.70;;;;;;4995871;28;20050;-34
2023/11/19 04:40:11;;;;;;;35.28;6.30;;;12.00;94.50;;;;;;4995593;28;20394;-34
2023/11/19 04:42:41;;;;;;;29.10;6.75;;;12.00;94.50;;;;;;4995583;28;20018;-34
2023/11/19 04:45:07;;;;;;;32.97;5.88;;;12.00;94.40;;;;;;4995583;28;20077;-33
2023/11/19 04:47:34;;;;;;;33.53;6.45;;;12.00;94.40;;;;;;4995156;28;20389;-30
2023/11/19 04:49:59;;;;;;;26.65;4.85;;;12.00;94.30;;;;;;4995370;28;20019;-37
2023/11/19 04:52:25;;;;;;;27.08;5.20;;;12.00;94.30;;;;;;4995310;28;20113;-32
2023/11/19 04:54:51;;;;;;;23.55;4.85;;;11.90;94.30;;;;;;4994035;28;20049;-32
2023/11/19 04:57:17;;;;;;;30.23;5.38;;;11.90;94.30;;;;;;4995137;28;20093;-30
2023/11/19 04:59:42;;;;;;;27.10;4.70;;;11.90;94.30;;;;;;4994127;28;20031;-32
2023/11/19 05:02:09;;;;;;;25.38;4.95;;;11.90;94.30;;;;;;4995181;28;20093;-31
2023/11/19 05:04:34;;;;;;;34.47;6.50;;;11.80;94.30;;;;;;4995302;28;20032;-33
2023/11/19 05:07:00;;;;;;;37.40;5.90;;;11.80;94.30;;;;;;4995351;28;20502;-31
2023/11/19 05:09:26;;;;;;;28.23;5.90;;;11.80;94.30;;;;;;4995101;28;20057;-33
2023/11/19 05:11:52;;;;;;;32.22;5.70;;;11.80;94.20;;;;;;4994860;28;20478;-35
2023/11/19 05:14:20;;;;;;;30.08;6.07;;;11.80;94.20;;;;;;4994904;28;20058;-37
2023/11/19 05:16:45;;;;;;;31.88;5.50;;;11.70;94.10;;;;;;4994990;28;20019;-30
2023/11/19 05:19:11;;;;;;;35.22;5.50;;;11.80;94.20;;;;;;4994001;28;20485;-33
2023/11/19 05:21:37;;;;;;;27.85;4.85;;;11.80;94.10;;;;;;4994457;28;20111;-30
2023/11/19 05:24:06;;;;;;;31.27;5.80;;;11.80;94.10;;;;;;4994799;28;20030;-33
2023/11/19 05:26:31;;;;;;;33.10;5.43;;;11.80;94.10;;;;;;4994613;28;20026;-32
2023/11/19 05:28:57;;;;;;;28.50;5.18;;;11.80;94.10;;;;;;4994558;28;20707;-30
2023/11/19 05:31:22;;;;;;;28.05;5.65;;;11.80;94.10;;;;;;4994600;28;20101;-30
2023/11/19 05:33:48;;;;;;;34.78;6.40;;;11.90;94.10;;;;;;4994654;28;20474;-35
2023/11/19 05:36:14;;;;;;;33.42;6.13;;;11.90;94.00;;;;;;4994551;28;20023;-30
2023/11/19 05:38:40;;;;;;;29.23;6.57;;;11.90;94.00;;;;;;4993190;28;20069;-30
2023/11/19 05:41:05;;;;;;;37.22;6.90;;;12.00;93.90;;;;;;4994418;28;20394;-30
2023/11/19 05:43:32;;;;;;;25.08;4.78;;;12.00;93.70;;;;;;4994312;28;20037;-33
2023/11/19 05:45:57;;;;;;;26.00;5.68;;;12.00;93.70;;;;;;4994156;28;20088;-30
2023/11/19 05:48:24;;;;;;;37.20;6.95;;;12.00;93.70;;;;;;4994145;28;20034;-32
2023/11/19 05:50:50;;;;;;;32.45;6.85;;;12.00;93.60;;;;;;4994196;28;20026;-33
2023/11/19 05:53:16;;;;;;;29.42;6.57;;;12.00;93.60;;;;;;4994209;28;20093;-37
2023/11/19 05:55:56;;;;;;;30.30;5.18;;;12.00;93.60;;;;;;4994160;28;20067;-30
2023/11/19 05:58:28;;;;;;;35.38;5.30;;;12.00;93.50;;;;;;4994010;28;20459;-30
2023/11/19 06:00:54;;;;;;;29.05;5.28;;;12.00;93.50;;;;;;4994098;28;20022;-39
2023/11/19 06:03:21;;;;;;;34.40;6.05;;;12.00;93.70;;;;;;4992659;28;20034;-30
2023/11/19 06:05:47;;;;;;;40.05;7.72;;;12.00;93.50;;;;;;4993966;28;20101;-36
2023/11/19 06:08:13;;;;;;;34.63;6.15;;;12.00;93.30;;;;;;4993912;28;20034;-32
2023/11/19 06:10:43;;;;;;;38.80;7.20;;;12.00;93.30;;;;;;4993512;28;20430;-31
2023/11/19 06:13:11;;;;;;;30.83;6.22;;;12.00;93.10;;;;;;4993946;28;20018;-30
2023/11/19 06:15:36;;;;;;;29.88;5.70;;;12.00;93.10;;;;;;4993834;28;20054;-37
2023/11/19 06:18:03;;;;;;;29.00;5.65;;;12.00;93.10;;;;;;4993286;28;20112;-38
2023/11/19 06:20:33;;;;;;;32.33;6.78;;;12.00;93.10;;;;;;4993719;28;20274;-30
2023/11/19 06:22:59;;;;;;;34.65;5.93;;;12.00;93.10;;;;;;4993617;28;20440;-31
2023/11/19 06:25:25;;;;;;;30.58;5.78;;;12.00;93.10;;;;;;4993467;28;20058;-30
2023/11/19 06:27:51;;;;;;;26.95;5.60;;;11.90;93.10;;;;;;4993683;28;20611;-31
2023/11/19 06:30:17;;;;;;;29.25;5.50;;;11.90;93.10;;;;;;4993232;28;20042;-32
2023/11/19 06:32:43;;;;;;;29.88;5.60;;;11.90;93.10;;;;;;4993450;28;20383;-40
2023/11/19 06:35:09;;;;;;;38.90;6.50;;;11.90;93.10;;;;;;4993370;28;20101;-33
2023/11/19 06:37:35;;;;;;;32.53;5.55;;;11.90;93.10;;;;;;4993253;28;20101;-29
2023/11/19 06:40:02;;;;;;;31.08;5.60;;;11.90;93.10;;;;;;4993203;28;20046;-33
2023/11/19 06:42:28;;;;;;;35.00;5.97;;;11.90;93.10;;;;;;4993563;28;20034;-30
2023/11/19 06:44:54;;;;;;;32.72;5.78;;;11.90;93.20;;;;;;4993234;28;20533;-32
2023/11/19 06:47:19;;;;;;;33.00;5.78;;;11.90;93.20;;;;;;4992898;28;20030;-31
2023/11/19 06:49:45;;;;;;;31.90;6.43;;;11.80;93.00;;;;;;4993092;28;20038;-30
2023/11/19 06:52:10;;;;;;;35.33;6.05;;;11.90;93.20;;;;;;4992957;28;20022;-30
2023/11/19 06:54:37;;;;;;;34.50;6.38;;;11.80;93.10;;;;;;4993168;28;20054;-30
2023/11/19 06:57:04;;;;;;;34.05;5.93;;;11.90;93.10;;;;;;4993073;28;20019;-29
2023/11/19 06:59:30;;;;;;;37.53;6.40;;;11.90;93.10;;;;;;4992895;28;20537;-29
2023/11/19 07:01:56;;;;;;;28.52;5.88;;;11.90;93.10;;;;;;4991718;28;20026;-30
2023/11/19 07:04:22;;;;;;;32.53;5.88;;;11.90;93.00;;;;;;4992944;28;20061;-29
2023/11/19 07:06:48;;;;;;;33.28;6.38;;;11.80;93.00;;;;;;4992835;28;20026;-30
2023/11/19 07:09:14;;;;;;;34.67;6.18;;;11.90;93.10;;;;;;4992820;28;20037;-30
2023/11/19 07:11:40;;;;;;;28.58;5.70;;;11.90;93.00;;;;;;4992621;28;20479;-32
2023/11/19 07:14:06;;;;;;;33.15;6.13;;;11.90;93.00;;;;;;4992946;28;20030;-31
2023/11/19 07:16:37;;;;;;;27.95;5.82;;;11.80;93.00;;;;;;4992874;28;20433;-30
2023/11/19 07:19:03;;;;;;;29.17;5.90;;;11.90;93.00;;;;;;4992396;28;20381;-32
2023/11/19 07:21:29;;;;;;;33.17;5.82;;;11.90;93.30;;;;;;4992333;28;20089;-31
2023/11/19 07:23:55;;;;;;;32.03;6.13;;;11.90;93.00;;;;;;4992432;28;20030;-31
2023/11/19 07:26:22;;;;;;;39.97;6.88;;;11.90;93.00;;;;;;4992442;28;20015;-30
2023/11/19 07:28:48;;;;;;;36.10;6.28;;;12.00;92.80;;;;;;4992722;28;20390;-29
2023/11/19 07:31:14;;;;;;;35.42;6.85;;;12.00;92.80;;;;;;4992813;28;20026;-31
2023/11/19 07:33:43;;;;;;;32.55;5.93;;;12.00;92.80;;;;;;4992495;28;20085;-31
2023/11/19 07:36:10;;;;;;;36.80;5.75;;;12.00;92.80;;;;;;4992458;28;20018;-35
2023/11/19 07:38:35;;;;;;;32.10;7.05;;;12.00;92.80;;;;;;4991275;28;20018;-29
2023/11/19 07:41:01;;;;;;;25.70;4.65;;;11.90;92.70;;;;;;4992427;28;20454;-32
2023/11/19 07:43:27;;;;;;;26.35;5.25;;;11.90;92.80;;;;;;4992483;28;20034;-30
2023/11/19 07:45:52;;;;;;;33.45;6.15;;;11.90;92.80;;;;;;4992371;28;20030;-31
2023/11/19 07:48:22;;;;;;;31.00;5.60;;;11.90;92.70;;;;;;4992300;28;20425;-30
2023/11/19 07:50:52;;;;;;;33.17;5.65;;;12.00;92.70;;;;;;4992364;28;20022;-30
2023/11/19 07:53:17;;;;;;;33.10;4.93;;;12.00;92.70;;;;;;4992746;28;20019;-30
2023/11/19 07:55:43;;;;;;;24.15;4.53;;;12.00;92.70;;;;;;4992361;28;20374;-32
2023/11/19 07:58:10;;;;;;;25.42;5.10;;;12.00;92.60;;;;;;4992206;28;20022;-30
2023/11/19 08:00:37;;;;;;;25.77;4.78;;;12.10;92.90;;;;;;4992343;28;20023;-35
2023/11/19 08:03:03;;;;;;;26.33;5.72;;;12.10;92.70;;;;;;4992246;28;20114;-36
2023/11/19 08:05:28;;;;;;;34.40;5.88;;;12.20;92.50;;;;;;4992282;28;20030;-35
2023/11/19 08:07:54;;;;;;;27.63;5.78;;;12.20;92.50;;;;;;4992096;28;20478;-31
2023/11/19 08:10:20;;;;;;;26.42;4.90;;;12.20;92.40;;;;;;4992083;28;20475;-30
2023/11/19 08:12:45;;;;;;;28.98;5.60;;;12.30;92.40;;;;;;4992280;28;20546;-29
2023/11/19 08:15:11;;;;;;;29.77;5.40;;;12.40;92.40;;;;;;4992058;28;20035;-32
2023/11/19 08:17:37;;;;;;;26.88;5.05;;;12.40;92.10;;;;;;4990432;28;20073;-31
2023/11/19 08:20:04;;;;;;;22.42;4.07;;;12.40;92.20;;;;;;4991966;28;20018;-31
2023/11/19 08:22:30;;;;;;;27.00;4.57;;;12.50;92.20;;;;;;4990653;28;20033;-30
2023/11/19 08:24:56;;;;;;;27.10;4.78;;;12.50;92.20;;;;;;4990617;28;20109;-31
2023/11/19 08:27:26;;;;;;;34.55;5.88;;;12.50;92.20;;;;;;4991744;28;20546;-38
2023/11/19 08:29:56;;;;;;;30.30;5.10;;;12.50;92.10;;;;;;4991717;28;20502;-36
2023/11/19 08:32:22;;;;;;;24.23;4.53;;;12.50;92.10;;;;;;4991810;28;20069;-34
2023/11/19 08:34:48;;;;;;;26.00;4.45;;;12.50;92.10;;;;;;4995153;28;20110;-32
2023/11/19 08:37:14;;;;;;;23.13;4.82;;;12.50;92.10;;;;;;4995579;28;20429;-31
2023/11/19 08:39:41;;;;;;;32.40;5.10;;;12.50;92.00;;;;;;4995630;28;20029;-32
2023/11/19 08:42:06;;;;;;;26.90;4.53;;;12.50;92.10;;;;;;4995800;28;20382;-29
2023/11/19 08:44:32;;;;;;;24.55;4.50;;;12.50;92.10;;;;;;4995476;28;20030;-30
2023/11/19 08:46:57;;;;;;;33.90;6.07;;;12.50;92.10;;;;;;4995045;28;20030;-31
2023/11/19 08:49:23;;;;;;;30.70;5.32;;;12.50;92.00;;;;;;4995601;28;20036;-31
2023/11/19 08:51:49;;;;;;;26.00;5.43;;;12.50;91.90;;;;;;4994224;28;20046;-37
2023/11/19 08:54:14;;;;;;;30.35;5.57;;;12.60;92.00;;;;;;4995331;28;20064;-37
2023/11/19 08:56:40;;;;;;;28.67;5.63;;;12.60;91.90;;;;;;4995414;28;20023;-31
2023/11/19 08:59:05;;;;;;;29.55;5.30;;;12.60;91.70;;;;;;4995200;28;20027;-31
2023/11/19 09:01:31;;;;;;;33.85;6.53;;;12.60;91.50;;;;;;4995406;28;20467;-32
2023/11/19 09:03:57;;;;;;;29.88;5.55;;;12.60;91.40;;;;;;4995051;28;20080;-30
2023/11/19 09:06:23;;;;;;;30.38;5.00;;;12.60;91.20;;;;;;4994827;28;20053;-30
2023/11/19 09:08:48;;;;;;;30.05;5.15;;;12.60;91.30;;;;;;4995249;28;20018;-31
2023/11/19 09:11:14;;;;;;;30.35;7.25;;;12.70;91.40;;;;;;4994301;28;20423;-30
2023/11/19 09:13:39;;;;;;;23.02;4.95;;;12.70;91.30;;;;;;4994659;28;20367;-33
2023/11/19 09:16:05;;;;;;;31.33;4.53;;;12.70;91.20;;;;;;4994777;28;20034;-32
2023/11/19 09:18:31;;;;;;;21.15;4.22;;;12.80;91.20;;;;;;4994526;28;20018;-30
2023/11/19 09:20:57;;;;;;;25.25;4.82;;;12.80;91.50;;;;;;4994758;28;20390;-31
2023/11/19 09:23:25;;;;;;;25.67;5.63;;;12.80;91.10;;;;;;4994984;28;20084;-30
2023/11/19 09:25:51;;;;;;;25.05;5.28;;;12.80;91.00;;;;;;4994652;28;20030;-33
2023/11/19 09:28:16;;;;;;;23.35;4.63;;;12.90;91.00;;;;;;4994903;28;20067;-35
2023/11/19 09:30:42;;;;;;;28.77;5.63;;;12.90;90.90;;;;;;4994568;28;20034;-29
2023/11/19 09:33:07;;;;;;;21.50;5.40;;;12.90;90.90;;;;;;4994826;28;20029;-37
2023/11/19 09:35:33;;;;;;;29.45;5.10;;;12.90;90.80;;;;;;4994571;28;20030;-30
2023/11/19 09:37:59;;;;;;;24.58;4.50;;;12.90;90.80;;;;;;4994490;28;20025;-29
2023/11/19 09:40:25;;;;;;;29.30;4.82;;;12.90;90.70;;;;;;4994398;28;20122;-30
2023/11/19 09:42:50;;;;;;;35.42;6.18;;;13.00;90.70;;;;;;4994443;28;20029;-30
2023/11/19 09:45:18;;;;;;;32.03;5.50;;;13.00;90.60;;;;;;4992571;28;20018;-29
2023/11/19 09:47:45;;;;;;;27.52;5.90;;;13.10;90.60;;;;;;4994046;28;20015;-33
2023/11/19 09:50:18;;;;;;;30.38;5.85;;;13.10;90.60;;;;;;4994274;28;20077;-34
2023/11/19 09:52:45;;;;;;;30.63;5.55;;;13.10;90.50;;;;;;4994183;28;20026;-33
2023/11/19 09:55:11;;;;;;;23.23;4.78;;;13.10;90.40;;;;;;4994293;28;20019;-32
2023/11/19 09:57:39;;;;;;;21.77;4.70;;;13.10;90.40;;;;;;4994083;28;20366;-29
2023/11/19 10:00:07;;;;;;;25.33;5.80;;;13.10;90.50;;;;;;4992797;28;20045;-31
2023/11/19 10:02:37;;;;;;;24.95;4.75;;;13.10;90.20;;;;;;4994030;28;20105;-29
2023/11/19 10:05:13;;;;;;;28.77;6.10;;;13.10;90.30;;;;;;4994003;28;20529;-33
2023/11/19 10:07:39;;;;;;;24.65;5.05;;;13.20;90.10;;;;;;4993913;28;20095;-30
2023/11/19 10:10:05;;;;;;;23.23;5.28;;;13.30;90.10;;;;;;4994075;28;20177;-31
2023/11/19 10:12:30;;;;;;;25.55;5.13;;;13.30;90.10;;;;;;4993647;28;20081;-32
2023/11/19 10:14:58;;;;;;;27.08;4.82;;;13.30;90.00;;;;;;4993603;28;20030;-33
2023/11/19 10:17:33;;;;;;;26.52;4.95;;;13.40;89.60;;;;;;4993528;28;20475;-33
2023/11/19 10:19:59;;;;;;;27.20;5.88;;;13.40;90.00;;;;;;4993578;28;20027;-32
2023/11/19 10:22:26;;;;;;;26.63;5.22;;;13.40;90.00;;;;;;4993603;28;20102;-35
2023/11/19 10:24:52;;;;;;;23.95;5.15;;;13.40;89.60;;;;;;4993916;28;20031;-30
2023/11/19 10:27:17;;;;;;;24.52;4.90;;;13.40;89.80;;;;;;4993434;28;20027;-30
2023/11/19 10:29:47;;;;;;;30.02;5.50;;;13.40;89.40;;;;;;4993203;28;20050;-31
2023/11/19 10:32:14;;;;;;;29.30;5.05;;;13.40;89.40;;;;;;4993316;28;20065;-37
2023/11/19 10:34:41;;;;;;;29.98;5.88;;;13.40;89.20;;;;;;4993638;28;20356;-35
2023/11/19 10:37:07;;;;;;;26.10;5.30;;;13.40;88.90;;;;;;4993290;28;20019;-31
2023/11/19 10:39:55;;;;;;;32.10;5.80;;;13.40;89.10;;;;;;4993219;28;20022;-36
2023/11/19 10:42:21;;;;;;;30.83;5.25;;;13.40;88.90;;;;;;4993369;28;20513;-29
2023/11/19 10:44:47;;;;;;;25.52;4.93;;;13.40;88.60;;;;;;4993235;28;20035;-32
2023/11/19 10:47:14;;;;;;;24.58;4.60;;;13.40;88.90;;;;;;4992800;28;20217;-29
2023/11/19 10:49:40;;;;;;;21.60;4.85;;;13.40;88.80;;;;;;4992970;28;20033;-31
2023/11/19 10:52:08;;;;;;;22.80;5.10;;;13.40;88.70;;;;;;4992966;28;20027;-31
2023/11/19 10:54:35;;;;;;;25.55;4.93;;;13.50;88.50;;;;;;4992961;28;20057;-30
2023/11/19 10:57:02;;;;;;;26.73;4.50;;;13.60;88.30;;;;;;4992352;28;20065;-33
2023/11/19 10:59:34;;;;;;;24.27;4.45;;;13.60;88.20;;;;;;4993196;28;20018;-34
2023/11/19 11:02:05;;;;;;;27.05;4.97;;;13.70;88.30;;;;;;4992627;28;20084;-35
2023/11/19 11:04:39;;;;;;;24.38;5.00;;;13.80;87.80;;;;;;4993169;28;20382;-34
2023/11/19 11:07:07;;;;;;;22.17;5.20;;;13.80;87.60;;;;;;4993096;28;20018;-34
2023/11/19 11:09:33;;;;;;;24.38;4.78;;;13.90;87.00;;;;;;4993084;28;20038;-33
2023/11/19 11:11:59;;;;;;;27.05;4.97;;;13.90;86.80;;;;;;4992920;28;20031;-35
2023/11/19 11:14:26;;;;;;;24.58;4.70;;;13.90;86.10;;;;;;4991482;28;20018;-30
2023/11/19 11:16:53;;;;;;;23.20;4.90;;;14.00;85.90;;;;;;4992297;28;20036;-39
2023/11/19 11:19:19;;;;;;;25.63;5.25;;;14.10;85.30;;;;;;4992793;28;20105;-30
2023/11/19 11:21:50;;;;;;;26.38;5.10;;;14.10;84.20;;;;;;4992662;28;20494;-36
2023/11/19 11:24:41;;;;;;;20.70;4.47;;;14.10;84.20;;;;;;4992661;28;20061;-32
2023/11/19 11:27:43;;;;;;;25.65;5.80;;;14.20;84.20;;;;;;4991095;28;20121;-33
2023/11/19 11:30:23;;;;;;;22.35;5.18;;;14.20;83.20;;;;;;4992407;28;20129;-38
2023/11/19 11:32:49;;;;;;;29.42;5.32;;;14.20;83.30;;;;;;4992817;28;20113;-36
2023/11/19 11:35:36;;;;;;;19.25;4.20;;;14.20;83.60;;;;;;4992506;28;20478;-32
2023/11/19 11:38:06;;;;;;;22.30;5.53;;;14.20;83.60;;;;;;4992617;28;20037;-31
2023/11/19 11:40:32;;;;;;;26.17;5.18;;;14.20;83.40;;;;;;4992369;28;20054;-30
2023/11/19 11:42:59;;;;;;;28.17;5.00;;;14.10;83.60;;;;;;4992434;28;20093;-30
2023/11/19 11:45:54;;;;;;;26.77;5.05;;;14.10;83.20;;;;;;4992388;28;20029;-30
2023/11/19 11:48:20;;;;;;;23.92;5.32;;;14.00;83.20;;;;;;4987427;28;20135;-30
2023/11/19 11:50:49;;;;;;;31.05;5.13;;;14.00;83.70;;;;;;4992486;28;20482;-32
2023/11/19 11:53:18;;;;;;;24.38;5.47;;;14.00;83.70;;;;;;4992576;28;20209;-35
2023/11/19 11:55:50;;;;;;;25.33;5.57;;;13.90;83.90;;;;;;4992622;28;20022;-31
2023/11/19 11:58:20;;;;;;;21.75;4.78;;;14.00;83.90;;;;;;4992070;28;20018;-30
2023/11/19 12:00:47;;;;;;;18.67;4.47;;;14.00;83.70;;;;;;4992158;28;20057;-31
2023/11/19 12:03:13;;;;;;;24.67;4.88;;;14.10;83.40;;;;;;4992080;28;20019;-40
2023/11/19 12:05:41;;;;;;;28.05;5.35;;;14.20;83.40;;;;;;4992299;28;20034;-32
2023/11/19 12:08:10;;;;;;;30.15;5.55;;;14.10;83.10;;;;;;4992872;28;20470;-30
2023/11/19 12:10:51;;;;;;;24.40;5.18;;;14.10;83.30;;;;;;4995924;28;20105;-34
2023/11/19 12:13:18;;;;;;;27.92;4.88;;;14.10;83.20;;;;;;4995984;28;20030;-36
2023/11/19 12:15:56;;;;;;;24.90;5.45;;;14.10;83.00;;;;;;4995924;28;20018;-33
2023/11/19 12:18:23;;;;;;;21.15;4.35;;;14.20;82.60;;;;;;4995891;28;20061;-32
2023/11/19 12:20:48;;;;;;;22.13;4.22;;;14.30;82.90;;;;;;4995919;28;20052;-34
2023/11/19 12:23:14;;;;;;;23.30;4.80;;;14.30;82.70;;;;;;4996140;28;20092;-31
2023/11/19 12:25:40;;;;;;;16.83;4.60;;;14.30;82.40;;;;;;4995711;28;20028;-33
2023/11/19 12:28:11;;;;;;;20.48;4.40;;;14.30;82.30;;;;;;4995672;28;20033;-32
2023/11/19 12:30:37;;;;;;;23.35;3.88;;;14.30;82.10;;;;;;4995736;28;20038;-30
2023/11/19 12:33:09;;;;;;;18.95;3.72;;;14.30;82.60;;;;;;4996068;28;20105;-33
2023/11/19 12:35:42;;;;;;;16.05;3.60;;;14.30;81.80;;;;;;4995693;28;20054;-31